createdAt,value
2019-02-21T00:01:22.195Z,100920.41
2019-02-21T00:03:48.051Z,100925.70
2019-02-21T00:06:13.981Z,100917.33
2019-02-21T00:08:40.206Z,100922.16
2019-02-21T00:11:06.132Z,100919.55
2019-02-21T00:13:32.109Z,100922.56
2019-02-21T00:15:57.956Z,100925.19
2019-02-21T00:18:23.792Z,100924.22
2019-02-21T00:20:49.636Z,100922.47
2019-02-21T00:23:15.490Z,100916.38
2019-02-21T00:25:41.455Z,100922.91
2019-02-21T00:28:07.402Z,100926.41
2019-02-21T00:30:35.501Z,100924.63
2019-02-21T00:33:01.110Z,100924.67
2019-02-21T00:35:27.006Z,100924.24
2019-02-21T00:37:53.013Z,100926.36
2019-02-21T00:40:18.940Z,100923.75
2019-02-21T00:42:44.811Z,100929.01
2019-02-21T00:45:10.949Z,100928.55
2019-02-21T00:47:36.786Z,100931.13
2019-02-21T00:50:03.536Z,100925.89
2019-02-21T00:52:31.412Z,100921.48
2019-02-21T00:54:57.243Z,100927.12
2019-02-21T00:57:23.068Z,100938.06
2019-02-21T00:59:50.871Z,100932.92
2019-02-21T01:02:17.003Z,100927.16
2019-02-21T01:04:42.935Z,100929.78
2019-02-21T01:07:08.938Z,100931.47
2019-02-21T01:09:34.796Z,100932.91
2019-02-21T01:12:00.647Z,100928.06
2019-02-21T01:14:26.525Z,100926.34
2019-02-21T01:16:52.353Z,100926.80
2019-02-21T01:19:18.168Z,100929.48
2019-02-21T01:21:44.167Z,100932.48
2019-02-21T01:24:10.118Z,100928.10
2019-02-21T01:26:35.967Z,100925.11
2019-02-21T01:29:01.839Z,100923.75
2019-02-21T01:31:27.780Z,100931.58
2019-02-21T01:33:53.760Z,100928.03
2019-02-21T01:36:19.810Z,100925.42
2019-02-21T01:38:45.667Z,100921.80
2019-02-21T01:41:11.598Z,100923.05
2019-02-21T01:43:37.561Z,100927.36
2019-02-21T01:46:03.526Z,100930.44
2019-02-21T01:48:29.710Z,100931.27
2019-02-21T01:50:55.709Z,100929.07
2019-02-21T01:53:21.706Z,100924.29
2019-02-21T01:55:47.651Z,100931.77
2019-02-21T01:58:13.486Z,100933.09
2019-02-21T02:00:39.492Z,100930.91
2019-02-21T02:03:05.617Z,100928.67
2019-02-21T02:05:31.548Z,100910.69
2019-02-21T02:07:57.634Z,100922.97
2019-02-21T02:10:23.721Z,100920.36
2019-02-21T02:12:49.645Z,100921.72
2019-02-21T02:15:15.713Z,100922.59
2019-02-21T02:17:41.573Z,100926.05
2019-02-21T02:20:07.723Z,100922.06
2019-02-21T02:22:33.672Z,100924.69
2019-02-21T02:24:59.512Z,100924.30
2019-02-21T02:27:25.443Z,100927.39
2019-02-21T02:29:51.281Z,100928.66
2019-02-21T02:32:17.241Z,100925.06
2019-02-21T02:34:43.326Z,100921.52
2019-02-21T02:37:09.172Z,100925.05
2019-02-21T02:39:35.005Z,100922.47
2019-02-21T02:42:00.929Z,100918.97
2019-02-21T02:44:26.789Z,100916.64
2019-02-21T02:46:52.672Z,100922.87
2019-02-21T02:49:18.519Z,100919.33
2019-02-21T02:51:44.334Z,100914.07
2019-02-21T02:54:10.354Z,100917.06
2019-02-21T02:56:36.295Z,100919.18
2019-02-21T02:59:02.241Z,100913.97
2019-02-21T03:01:34.883Z,100920.17
2019-02-21T03:03:56.414Z,100920.11
2019-02-21T03:06:22.277Z,100920.03
2019-02-21T03:08:48.146Z,100924.52
2019-02-21T03:11:14.091Z,100924.02
2019-02-21T03:13:40.032Z,100920.11
2019-02-21T03:16:06.080Z,100917.61
2019-02-21T03:18:31.971Z,100921.55
2019-02-21T03:20:57.935Z,100919.27
2019-02-21T03:23:23.826Z,100919.09
2019-02-21T03:25:49.651Z,100918.61
2019-02-21T03:28:15.590Z,100924.30
2019-02-21T03:30:41.559Z,100917.36
2019-02-21T03:33:07.492Z,100923.11
2019-02-21T03:35:33.349Z,100920.47
2019-02-21T03:37:59.240Z,100924.74
2019-02-21T03:40:25.169Z,100927.41
2019-02-21T03:42:51.000Z,100929.53
2019-02-21T03:45:17.184Z,100916.91
2019-02-21T03:47:43.137Z,100923.03
2019-02-21T03:50:10.076Z,100917.79
2019-02-21T03:52:36.071Z,100922.53
2019-02-21T03:55:02.539Z,100918.10
2019-02-21T03:57:28.382Z,100920.12
2019-02-21T03:59:54.474Z,100912.34
2019-02-21T04:02:20.468Z,100910.67
2019-02-21T04:04:50.293Z,100915.48
2019-02-21T04:07:16.297Z,100918.84
2019-02-21T04:09:42.338Z,100907.53
2019-02-21T04:12:08.221Z,100921.52
2019-02-21T04:14:34.187Z,100920.65
2019-02-21T04:17:00.043Z,100918.49
2019-02-21T04:19:25.890Z,100922.74
2019-02-21T04:21:51.948Z,100923.70
2019-02-21T04:24:18.017Z,100924.38
2019-02-21T04:26:43.963Z,100903.42
2019-02-21T04:29:09.833Z,100911.36
2019-02-21T04:31:35.874Z,100920.58
2019-02-21T04:34:01.768Z,100920.05
2019-02-21T04:36:27.634Z,100901.29
2019-02-21T04:38:53.498Z,100910.06
2019-02-21T04:41:19.574Z,100921.92
2019-02-21T04:43:45.430Z,100919.20
2019-02-21T04:46:11.235Z,100922.23
2019-02-21T04:48:37.215Z,100920.36
2019-02-21T04:51:03.156Z,100925.13
2019-02-21T04:53:29.051Z,100922.92
2019-02-21T04:55:54.896Z,100926.27
2019-02-21T04:58:20.754Z,100935.11
2019-02-21T05:00:46.732Z,100936.01
2019-02-21T05:03:12.565Z,100933.80
2019-02-21T05:05:38.476Z,100937.78
2019-02-21T05:08:04.417Z,100932.66
2019-02-21T05:10:30.290Z,100943.07
2019-02-21T05:12:56.172Z,100945.18
2019-02-21T05:15:22.043Z,100940.38
2019-02-21T05:17:47.978Z,100944.56
2019-02-21T05:20:13.823Z,100949.95
2019-02-21T05:22:39.687Z,100949.15
2019-02-21T05:25:05.868Z,100959.16
2019-02-21T05:27:33.257Z,100960.83
2019-02-21T05:29:59.208Z,100941.48
2019-02-21T05:32:27.037Z,100954.27
2019-02-21T05:35:13.135Z,100951.87
2019-02-21T05:37:56.216Z,100951.87
2019-02-21T05:40:32.992Z,100949.66
2019-02-21T05:43:09.850Z,100947.86
2019-02-21T05:45:40.601Z,100948.74
2019-02-21T05:48:14.285Z,100948.74
2019-02-21T05:50:58.726Z,100946.23
2019-02-21T05:53:35.299Z,100946.23
2019-02-21T05:56:18.172Z,100952.99
2019-02-21T05:58:54.931Z,100959.61
2019-02-21T06:01:35.096Z,100951.63
2019-02-21T06:04:02.963Z,100951.63
2019-02-21T06:06:31.040Z,100961.05
2019-02-21T06:08:58.828Z,100970.30
2019-02-21T06:11:26.572Z,100966.83
2019-02-21T06:13:57.605Z,100963.83
2019-02-21T06:16:25.350Z,100963.83
2019-02-21T06:18:53.133Z,100953.36
2019-02-21T06:21:26.760Z,100964.78
2019-02-21T06:23:54.589Z,100962.52
2019-02-21T06:26:28.337Z,100961.66
2019-02-21T06:28:56.212Z,100961.16
2019-02-21T06:31:22.105Z,100959.83
2019-02-21T06:33:49.497Z,100959.83
2019-02-21T06:36:15.571Z,100977.46
2019-02-21T06:38:41.500Z,100970.13
2019-02-21T06:41:07.371Z,100977.71
2019-02-21T06:43:33.270Z,100979.95
2019-02-21T06:45:59.117Z,100982.64
2019-02-21T06:48:25.184Z,100991.70
2019-02-21T06:50:51.092Z,100992.23
2019-02-21T06:53:16.956Z,100999.63
2019-02-21T06:55:45.510Z,100998.95
2019-02-21T06:58:11.520Z,101005.02
2019-02-21T07:00:37.454Z,101004.19
2019-02-21T07:03:03.353Z,101009.48
2019-02-21T07:05:29.510Z,101020.92
2019-02-21T07:07:58.877Z,101015.30
2019-02-21T07:10:24.855Z,101028.50
2019-02-21T07:12:50.916Z,101025.03
2019-02-21T07:15:16.931Z,101028.06
2019-02-21T07:17:49.409Z,101029.47
2019-02-21T07:20:12.920Z,101032.61
2019-02-21T07:22:38.521Z,101033.55
2019-02-21T07:25:06.850Z,101030.52
2019-02-21T07:27:32.662Z,101044.64
2019-02-21T07:29:58.593Z,101040.78
2019-02-21T07:32:24.488Z,101044.39
2019-02-21T07:34:50.305Z,101046.70
2019-02-21T07:37:19.013Z,101047.28
2019-02-21T07:39:44.126Z,101050.80
2019-02-21T07:42:10.058Z,101053.01
2019-02-21T07:44:35.896Z,101056.61
2019-02-21T07:47:01.769Z,101060.62
2019-02-21T07:49:27.713Z,101056.37
2019-02-21T07:51:53.625Z,101062.61
2019-02-21T07:54:19.447Z,101065.33
2019-02-21T07:56:45.493Z,101062.75
2019-02-21T07:59:12.273Z,101067.23
2019-02-21T08:01:38.650Z,101070.75
2019-02-21T08:04:04.608Z,101073.85
2019-02-21T08:06:30.513Z,101067.72
2019-02-21T08:08:56.421Z,101067.84
2019-02-21T08:11:22.439Z,101066.09
2019-02-21T08:13:48.452Z,101067.03
2019-02-21T08:16:14.502Z,101061.33
2019-02-21T08:18:40.366Z,101057.45
2019-02-21T08:21:06.219Z,101063.16
2019-02-21T08:23:32.570Z,101068.88
2019-02-21T08:25:58.791Z,101061.81
2019-02-21T08:28:24.616Z,101065.33
2019-02-21T08:30:50.443Z,101060.96
2019-02-21T08:33:24.018Z,101065.38
2019-02-21T08:35:49.860Z,101066.27
2019-02-21T08:38:15.917Z,101071.97
2019-02-21T08:40:41.789Z,101069.36
2019-02-21T08:43:07.626Z,101067.58
2019-02-21T08:45:33.738Z,101069.34
2019-02-21T08:47:59.601Z,101071.92
2019-02-21T08:50:25.554Z,101065.30
2019-02-21T08:52:51.520Z,101067.04
2019-02-21T08:55:17.552Z,101065.24
2019-02-21T08:57:43.530Z,101074.00
2019-02-21T09:00:11.988Z,101066.01
2019-02-21T09:02:38.025Z,101067.70
2019-02-21T09:05:05.702Z,101065.02
2019-02-21T09:07:31.584Z,101070.73
2019-02-21T09:09:57.612Z,101061.44
2019-02-21T09:12:23.567Z,101066.59
2019-02-21T09:14:49.605Z,101073.07
2019-02-21T09:17:15.529Z,101064.61
2019-02-21T09:19:41.482Z,101063.23
2019-02-21T09:22:07.478Z,101050.50
2019-02-21T09:24:40.018Z,101065.32
2019-02-21T09:27:01.270Z,101065.72
2019-02-21T09:29:27.267Z,101072.09
2019-02-21T09:31:53.122Z,101075.97
2019-02-21T09:34:21.510Z,101068.11
2019-02-21T09:36:46.887Z,101074.66
2019-02-21T09:39:12.724Z,101071.81
2019-02-21T09:41:38.770Z,101079.45
2019-02-21T09:44:04.887Z,101079.92
2019-02-21T09:46:30.828Z,101076.73
2019-02-21T09:48:56.906Z,101074.44
2019-02-21T09:51:22.747Z,101074.02
2019-02-21T09:53:48.688Z,101077.48
2019-02-21T09:56:14.640Z,101073.39
2019-02-21T09:58:40.485Z,101065.56
2019-02-21T10:01:06.405Z,101064.58
2019-02-21T10:03:32.229Z,101064.41
2019-02-21T10:05:58.054Z,101060.63
2019-02-21T10:08:24.073Z,101061.25
2019-02-21T10:10:50.025Z,101065.41
2019-02-21T10:13:15.890Z,101055.42
2019-02-21T10:15:41.755Z,101062.17
2019-02-21T10:18:07.582Z,101067.08
2019-02-21T10:20:33.535Z,101060.71
2019-02-21T10:22:59.628Z,101065.53
2019-02-21T10:25:27.274Z,101061.28
2019-02-21T10:27:53.226Z,101054.02
2019-02-21T10:30:21.054Z,101060.11
2019-02-21T10:32:47.104Z,101063.44
2019-02-21T10:35:13.199Z,101058.46
2019-02-21T10:37:39.164Z,101058.77
2019-02-21T10:40:08.088Z,101058.06
2019-02-21T10:42:34.183Z,101055.41
2019-02-21T10:45:00.036Z,101046.16
2019-02-21T10:47:26.070Z,101046.77
2019-02-21T10:49:52.154Z,101047.17
2019-02-21T10:52:18.084Z,101039.31
2019-02-21T10:54:44.059Z,101040.87
2019-02-21T10:57:10.002Z,101041.59
2019-02-21T10:59:46.299Z,101037.28
2019-02-21T11:02:03.828Z,101040.72
2019-02-21T11:04:29.771Z,101028.05
2019-02-21T11:06:55.668Z,101026.61
2019-02-21T11:09:21.682Z,101033.14
2019-02-21T11:11:47.696Z,101026.34
2019-02-21T11:14:13.596Z,101024.86
2019-02-21T11:16:39.451Z,101023.00
2019-02-21T11:19:05.406Z,101020.23
2019-02-21T11:21:31.661Z,101012.41
2019-02-21T11:23:57.523Z,101010.41
2019-02-21T11:26:23.598Z,101003.19
2019-02-21T11:28:49.562Z,100996.14
2019-02-21T11:31:15.490Z,100991.30
2019-02-21T11:33:41.551Z,100987.52
2019-02-21T11:36:07.580Z,100989.91
2019-02-21T11:38:33.555Z,100992.31
2019-02-21T11:40:59.505Z,100987.26
2019-02-21T11:43:25.563Z,100979.61
2019-02-21T11:45:56.364Z,100976.59
2019-02-21T11:48:19.482Z,100973.67
2019-02-21T11:50:45.313Z,100974.12
2019-02-21T11:53:11.230Z,100962.41
2019-02-21T11:55:37.047Z,100962.48
2019-02-21T11:58:02.877Z,100960.11
2019-02-21T12:00:29.456Z,100960.61
2019-02-21T12:02:55.419Z,100953.45
2019-02-21T12:05:30.564Z,100954.22
2019-02-21T12:07:50.046Z,100949.40
2019-02-21T12:10:16.102Z,100941.84
2019-02-21T12:12:42.091Z,100938.66
2019-02-21T12:15:10.119Z,100944.03
2019-02-21T12:17:36.054Z,100939.91
2019-02-21T12:20:04.128Z,100937.66
2019-02-21T12:22:30.164Z,100940.16
2019-02-21T12:24:55.999Z,100935.27
2019-02-21T12:27:21.994Z,100920.30
2019-02-21T12:29:47.823Z,100937.02
2019-02-21T12:32:13.916Z,100919.88
2019-02-21T12:34:39.840Z,100921.81
2019-02-21T12:37:05.794Z,100919.13
2019-02-21T12:39:31.667Z,100925.58
2019-02-21T12:41:57.504Z,100924.33
2019-02-21T12:44:23.450Z,100933.38
2019-02-21T12:46:49.316Z,100927.34
2019-02-21T12:49:15.150Z,100928.55
2019-02-21T12:51:41.005Z,100922.09
2019-02-21T12:54:06.888Z,100928.22
2019-02-21T12:56:32.838Z,100924.03
2019-02-21T12:58:58.785Z,100924.06
2019-02-21T13:01:24.699Z,100919.42
2019-02-21T13:03:50.653Z,100917.56
2019-02-21T13:06:16.603Z,100916.33
2019-02-21T13:08:42.485Z,100924.65
2019-02-21T13:11:08.314Z,100925.49
2019-02-21T13:13:34.385Z,100916.08
2019-02-21T13:16:00.367Z,100925.44
2019-02-21T13:18:26.345Z,100925.69
2019-02-21T13:20:52.355Z,100924.14
2019-02-21T13:23:18.287Z,100912.95
2019-02-21T13:25:44.130Z,100904.91
2019-02-21T13:28:10.033Z,100905.28
2019-02-21T13:30:35.897Z,100899.22
2019-02-21T13:33:01.825Z,100891.32
2019-02-21T13:35:29.371Z,100893.53
2019-02-21T13:37:55.383Z,100877.80
2019-02-21T13:40:21.559Z,100877.59
2019-02-21T13:42:47.405Z,100881.85
2019-02-21T13:45:17.264Z,100871.31
2019-02-21T13:47:42.261Z,100872.41
2019-02-21T13:50:15.493Z,100867.28
2019-02-21T13:52:41.423Z,100861.07
2019-02-21T13:55:07.985Z,100871.31
2019-02-21T13:57:33.871Z,100866.55
2019-02-21T13:59:59.915Z,100870.94
2019-02-21T14:02:25.901Z,100857.92
2019-02-21T14:04:51.718Z,100858.39
2019-02-21T14:07:17.544Z,100844.84
2019-02-21T14:09:43.433Z,100852.77
2019-02-21T14:12:09.298Z,100849.44
2019-02-21T14:14:35.150Z,100849.31
2019-02-21T14:17:05.104Z,100856.55
2019-02-21T14:19:30.930Z,100844.39
2019-02-21T14:21:56.993Z,100848.77
2019-02-21T14:24:22.875Z,100847.20
2019-02-21T14:26:48.730Z,100851.70
2019-02-21T14:29:14.668Z,100848.16
2019-02-21T14:31:40.620Z,100832.44
2019-02-21T14:34:06.668Z,100835.93
2019-02-21T14:36:32.666Z,100838.83
2019-02-21T14:38:58.549Z,100828.13
2019-02-21T14:41:24.381Z,100833.59
2019-02-21T14:43:50.515Z,100833.11
2019-02-21T14:46:16.377Z,100822.80
2019-02-21T14:48:42.252Z,100833.33
2019-02-21T14:51:08.232Z,100826.94
2019-02-21T14:53:34.095Z,100818.09
2019-02-21T14:56:00.069Z,100817.86
2019-02-21T14:58:26.013Z,100807.47
2019-02-21T15:00:51.881Z,100815.41
2019-02-21T15:03:21.904Z,100808.50
2019-02-21T15:05:45.727Z,100803.90
2019-02-21T15:08:11.594Z,100803.63
2019-02-21T15:10:37.442Z,100802.21
2019-02-21T15:13:03.365Z,100803.17
2019-02-21T15:15:29.460Z,100804.19
2019-02-21T15:18:06.573Z,100796.96
2019-02-21T15:20:23.382Z,100798.30
2019-02-21T15:22:49.287Z,100800.34
2019-02-21T15:25:15.236Z,100793.22
2019-02-21T15:27:41.254Z,100792.87
2019-02-21T15:30:10.712Z,100792.68
2019-02-21T15:32:37.777Z,100791.58
2019-02-21T15:35:04.238Z,100795.88
2019-02-21T15:37:30.189Z,100794.40
2019-02-21T15:39:56.013Z,100793.80
2019-02-21T15:42:22.000Z,100798.28
2019-02-21T15:44:47.859Z,100791.70
2019-02-21T15:47:13.688Z,100788.33
2019-02-21T15:49:39.564Z,100789.36
2019-02-21T15:52:05.598Z,100793.61
2019-02-21T15:54:31.473Z,100785.72
2019-02-21T15:56:57.342Z,100786.64
2019-02-21T15:59:23.191Z,100787.27
2019-02-21T16:01:49.385Z,100786.45
2019-02-21T16:04:15.352Z,100783.96
2019-02-21T16:06:51.142Z,100788.77
2019-02-21T16:09:16.226Z,100797.22
2019-02-21T16:11:36.862Z,100791.47
2019-02-21T16:14:03.714Z,100794.86
2019-02-21T16:16:29.874Z,100787.73
2019-02-21T16:18:59.189Z,100786.95
2019-02-21T16:21:25.256Z,100783.47
2019-02-21T16:23:51.258Z,100791.58
2019-02-21T16:26:17.315Z,100793.67
2019-02-21T16:28:43.287Z,100794.70
2019-02-21T16:31:09.120Z,100791.88
2019-02-21T16:33:35.019Z,100796.66
2019-02-21T16:36:01.190Z,100793.44
2019-02-21T16:38:27.132Z,100793.44
2019-02-21T16:40:53.031Z,100809.67
2019-02-21T16:43:19.806Z,100804.00
2019-02-21T16:45:47.152Z,100802.75
2019-02-21T16:48:13.525Z,100796.20
2019-02-21T16:50:39.339Z,100797.28
2019-02-21T16:53:05.194Z,100802.44
2019-02-21T16:55:31.367Z,100793.61
2019-02-21T16:57:57.352Z,100790.53
2019-02-21T17:00:23.831Z,100797.48
2019-02-21T17:02:49.969Z,100792.33
2019-02-21T17:05:15.805Z,100784.67
2019-02-21T17:07:41.891Z,100784.88
2019-02-21T17:10:10.723Z,100788.81
2019-02-21T17:12:37.176Z,100788.82
2019-02-21T17:15:05.643Z,100788.79
2019-02-21T17:17:31.522Z,100791.77
2019-02-21T17:19:57.455Z,100788.52
2019-02-21T17:22:23.409Z,100795.45
2019-02-21T17:24:49.280Z,100798.39
2019-02-21T17:27:15.166Z,100805.04
2019-02-21T17:29:41.054Z,100803.18
2019-02-21T17:32:06.891Z,100804.99
2019-02-21T17:34:32.721Z,100806.80
2019-02-21T17:36:58.584Z,100809.69
2019-02-21T17:39:24.547Z,100810.05
2019-02-21T17:41:50.902Z,100809.59
2019-02-21T17:44:16.735Z,100819.11
2019-02-21T17:46:42.710Z,100823.06
2019-02-21T17:49:08.544Z,100821.40
2019-02-21T17:51:34.493Z,100822.09
2019-02-21T17:54:00.556Z,100822.52
2019-02-21T17:56:26.485Z,100824.91
2019-02-21T17:58:52.442Z,100826.64
2019-02-21T18:01:18.297Z,100825.99
2019-02-21T18:03:44.325Z,100830.37
2019-02-21T18:06:10.247Z,100832.70
2019-02-21T18:08:36.074Z,100829.75
2019-02-21T18:11:02.045Z,100831.16
2019-02-21T18:13:28.371Z,100822.15
2019-02-21T18:15:54.404Z,100812.98
2019-02-21T18:18:20.368Z,100819.30
2019-02-21T18:20:46.381Z,100827.16
2019-02-21T18:23:12.547Z,100825.31
2019-02-21T18:25:47.803Z,100827.30
2019-02-21T18:28:13.762Z,100826.56
2019-02-21T18:30:39.681Z,100820.88
2019-02-21T18:33:05.782Z,100817.03
2019-02-21T18:35:31.857Z,100817.80
2019-02-21T18:37:57.769Z,100818.02
2019-02-21T18:40:25.002Z,100811.51
2019-02-21T18:42:51.051Z,100807.25
2019-02-21T18:45:16.990Z,100805.77
2019-02-21T18:47:43.129Z,100799.59
2019-02-21T18:50:10.770Z,100802.34
2019-02-21T18:52:36.706Z,100808.48
2019-02-21T18:55:04.279Z,100807.64
2019-02-21T18:57:30.281Z,100805.48
2019-02-21T18:59:56.199Z,100808.21
2019-02-21T19:02:22.134Z,100807.44
2019-02-21T19:04:48.064Z,100799.02
2019-02-21T19:07:14.063Z,100801.62
2019-02-21T19:09:39.894Z,100801.20
2019-02-21T19:12:05.993Z,100806.52
2019-02-21T19:14:31.835Z,100807.47
2019-02-21T19:16:57.766Z,100809.77
2019-02-21T19:19:23.765Z,100813.75
2019-02-21T19:21:49.868Z,100824.79
2019-02-21T19:24:17.733Z,100826.17
2019-02-21T19:26:43.624Z,100821.31
2019-02-21T19:29:09.564Z,100823.94
2019-02-21T19:31:35.522Z,100825.74
2019-02-21T19:34:01.699Z,100823.06
2019-02-21T19:36:27.545Z,100827.41
2019-02-21T19:38:53.489Z,100815.89
2019-02-21T19:41:19.514Z,100808.48
2019-02-21T19:43:45.531Z,100816.86
2019-02-21T19:46:11.585Z,100815.20
2019-02-21T19:48:37.586Z,100809.92
2019-02-21T19:51:03.823Z,100799.44
2019-02-21T19:53:29.898Z,100803.41
2019-02-21T19:55:55.908Z,100804.80
2019-02-21T19:58:21.743Z,100806.20
2019-02-21T20:00:48.101Z,100809.36
2019-02-21T20:03:14.043Z,100809.43
2019-02-21T20:05:40.086Z,100804.24
2019-02-21T20:08:08.969Z,100802.50
2019-02-21T20:10:33.930Z,100806.42
2019-02-21T20:13:01.761Z,100804.73
2019-02-21T20:15:27.710Z,100807.34
2019-02-21T20:17:53.913Z,100807.72
2019-02-21T20:20:25.375Z,100796.70
2019-02-21T20:22:51.427Z,100790.50
2019-02-21T20:25:17.483Z,100784.38
2019-02-21T20:27:43.441Z,100794.53
2019-02-21T20:30:12.434Z,100812.55
2019-02-21T20:32:38.519Z,100813.63
2019-02-21T20:35:04.801Z,100813.18
2019-02-21T20:37:30.719Z,100803.55
2019-02-21T20:39:56.786Z,100807.45
2019-02-21T20:42:24.581Z,100815.75
2019-02-21T20:44:50.629Z,100821.94
2019-02-21T20:47:16.675Z,100830.35
2019-02-21T20:49:42.596Z,100829.99
2019-02-21T20:52:08.490Z,100837.03
2019-02-21T20:54:34.518Z,100839.21
2019-02-21T20:57:00.552Z,100835.72
2019-02-21T20:59:26.510Z,100834.80
2019-02-21T21:01:52.449Z,100826.45
2019-02-21T21:04:18.323Z,100829.09
2019-02-21T21:06:44.413Z,100835.68
2019-02-21T21:09:10.811Z,100841.36
2019-02-21T21:11:36.855Z,100836.53
2019-02-21T21:14:02.868Z,100839.58
2019-02-21T21:16:28.719Z,100840.53
2019-02-21T21:18:54.555Z,100842.67
2019-02-21T21:21:20.555Z,100840.13
2019-02-21T21:23:49.260Z,100846.75
2019-02-21T21:26:19.163Z,100843.25
2019-02-21T21:28:45.019Z,100840.13
2019-02-21T21:31:10.956Z,100841.40
2019-02-21T21:33:36.813Z,100851.98
2019-02-21T21:36:02.880Z,100848.96
2019-02-21T21:38:30.469Z,100848.13
2019-02-21T21:40:56.402Z,100845.55
2019-02-21T21:43:23.214Z,100851.71
2019-02-21T21:45:49.299Z,100856.55
2019-02-21T21:48:15.235Z,100857.89
2019-02-21T21:50:41.271Z,100854.38
2019-02-21T21:53:07.270Z,100847.76
2019-02-21T21:55:33.127Z,100848.62
2019-02-21T21:57:59.086Z,100840.75
2019-02-21T22:00:25.148Z,100843.39
2019-02-21T22:02:51.200Z,100851.72
2019-02-21T22:05:17.123Z,100853.91
2019-02-21T22:07:43.200Z,100851.73
2019-02-21T22:10:10.856Z,100847.75
2019-02-21T22:12:36.720Z,100846.46
2019-02-21T22:15:05.050Z,100846.44
2019-02-21T22:17:30.904Z,100847.34
2019-02-21T22:19:56.815Z,100848.62
2019-02-21T22:22:22.664Z,100843.80
2019-02-21T22:24:48.460Z,100841.63
2019-02-21T22:27:14.446Z,100843.81
2019-02-21T22:29:40.226Z,100845.58
2019-02-21T22:32:06.203Z,100831.98
2019-02-21T22:34:32.091Z,100843.41
2019-02-21T22:36:57.902Z,100843.83
2019-02-21T22:39:23.826Z,100849.53
2019-02-21T22:41:50.188Z,100844.72
2019-02-21T22:44:16.028Z,100841.21
2019-02-21T22:46:42.061Z,100842.56
2019-02-21T22:49:07.891Z,100847.37
2019-02-21T22:51:33.750Z,100850.86
2019-02-21T22:53:59.627Z,100837.73
2019-02-21T22:56:25.603Z,100842.95
2019-02-21T22:58:51.539Z,100843.38
2019-02-21T23:01:24.291Z,100848.22
2019-02-21T23:03:53.549Z,100844.32
2019-02-21T23:06:32.523Z,100846.94
2019-02-21T23:08:58.469Z,100854.42
2019-02-21T23:11:24.533Z,100853.09
2019-02-21T23:13:50.610Z,100854.42
2019-02-21T23:16:16.557Z,100852.64
2019-02-21T23:18:42.608Z,100853.06
2019-02-21T23:21:08.711Z,100855.26
2019-02-21T23:23:34.646Z,100858.34
2019-02-21T23:26:00.682Z,100849.16
2019-02-21T23:28:29.939Z,100848.27
2019-02-21T23:30:55.761Z,100847.83
2019-02-21T23:33:23.187Z,100842.15
2019-02-21T23:35:49.085Z,100838.20
2019-02-21T23:38:15.016Z,100841.27
2019-02-21T23:40:41.056Z,100842.58
2019-02-21T23:43:07.086Z,100845.22
2019-02-21T23:45:33.124Z,100843.47
2019-02-21T23:47:59.063Z,100839.95
2019-02-21T23:50:25.146Z,100829.45
2019-02-21T23:52:51.013Z,100841.28
2019-02-21T23:55:16.912Z,100838.20
2019-02-21T23:57:42.763Z,100843.01
